Time;durP1;ratioP1;P1;durP2;ratioP2;P2;SDS_P1;SDS_P2;PMS_P1;PMS_P2;Temp;Humidity;BMP_temperature;BMP_pressure;BME280_temperature;BME280_humidity;BME280_pressure;Samples;Min_cycle;Max_cycle;Signal;HPM_P1;HPM_P2
2022/05/14 02:55:45;;;;;;;5.75;2.45;;;12.90;87.10;;;;;;6250537;22;20026;-95
2022/05/14 03:01:33;;;;;;;6.55;2.30;;;12.80;87.20;;;;;;6286394;22;20124;-93
2022/05/14 03:04:17;;;;;;;4.25;2.22;;;12.70;87.20;;;;;;6288097;22;20429;-93
2022/05/14 03:06:56;;;;;;;;;;;;;;;;;;;;;
2022/05/14 03:09:46;;;;;;;;;;;;;;;;;;;;;
2022/05/14 03:12:44;;;;;;;;;;;;;;;;;;;;;
2022/05/14 03:15:30;;;;;;;;;;;;;;;;;;;;;
2022/05/14 03:18:09;;;;;;;;;;;;;;;;;;;;;
2022/05/14 03:20:56;;;;;;;;;;;;;;;;;;;;;
2022/05/14 03:23:35;;;;;;;;;;;;;;;;;;;;;
2022/05/14 03:26:14;;;;;;;5.75;2.50;;;12.60;87.80;;;;;;6300348;22;20000;-94
2022/05/14 03:29:08;;;;;;;;;;;;;;;;;;;;;
2022/05/14 03:31:56;;;;;;;5.10;2.28;;;12.50;88.10;;;;;;6286525;22;20019;-93
2022/05/14 03:34:38;;;;;;;6.22;2.05;;;12.50;88.10;;;;;;6283264;22;20010;-94
2022/05/14 03:40:18;;;;;;;;;;;;;;;;;;;;;
2022/05/14 03:43:05;;;;;;;4.65;2.50;;;12.40;88.20;;;;;;6283534;22;20083;-94
2022/05/14 03:45:46;;;;;;;5.30;2.28;;;12.40;88.20;;;;;;6276065;22;20007;-94
2022/05/14 03:48:22;;;;;;;;;;;12.40;88.20;;;;;;6262267;22;20007;-94
2022/05/14 03:51:07;;;;;;;;;;;;;;;;;;;;;
2022/05/14 03:54:09;;;;;;;;;;;;;;;;;;;;;
2022/05/14 03:56:49;;;;;;;;;;;;;;;;;;;;;
2022/05/14 03:59:28;;;;;;;6.45;2.60;;;12.30;88.40;;;;;;6237942;22;20031;-93
2022/05/14 04:02:17;;;;;;;5.30;2.45;;;12.30;88.40;;;;;;6233935;22;20024;-93
2022/05/14 04:04:57;;;;;;;5.68;2.53;;;12.30;88.40;;;;;;6255907;22;20008;-96
2022/05/14 04:08:09;;;;;;;;;;;;;;;;;;;;;
2022/05/14 04:10:51;;;;;;;;;;;;;;;;;;;;;
2022/05/14 04:13:33;;;;;;;;;;;;;;;;;;;;;
2022/05/14 04:16:09;;;;;;;7.53;2.80;;;12.40;88.50;;;;;;6284339;22;20023;-94
2022/05/14 04:18:43;;;;;;;5.72;2.60;;;12.40;88.60;;;;;;6232051;22;20007;-91
2022/05/14 04:21:45;;;;;;;6.35;2.97;;;12.30;88.60;;;;;;6232877;22;20014;-95
2022/05/14 04:24:30;;;;;;;;;;;;;;;;;;;;;
2022/05/14 04:30:03;;;;;;;6.93;2.42;;;12.30;88.80;;;;;;6236053;22;20526;-95
2022/05/14 04:32:51;;;;;;;;;;;;;;;;;;;;;
2022/05/14 04:35:35;;;;;;;5.95;2.88;;;12.30;88.80;;;;;;6232917;22;20171;-92
2022/05/14 04:38:32;;;;;;;;;;;;;;;;;;;;;
2022/05/14 04:41:16;;;;;;;4.13;2.63;;;12.30;89.10;;;;;;6281905;22;20217;-95
2022/05/14 04:44:11;;;;;;;6.65;2.78;;;12.30;89.10;;;;;;6235340;22;20011;-92
2022/05/14 04:46:48;;;;;;;9.07;3.05;;;12.30;89.30;;;;;;6267008;22;20015;-93
2022/05/14 04:49:35;;;;;;;5.93;3.00;;;12.30;89.30;;;;;;6257676;22;20389;-94
2022/05/14 04:52:22;;;;;;;10.35;3.42;;;12.30;89.30;;;;;;6212822;22;20035;-94
2022/05/14 04:55:13;;;;;;;5.03;2.83;;;12.30;89.40;;;;;;6234919;22;20004;-95
2022/05/14 04:58:14;;;;;;;5.75;2.97;;;12.30;89.50;;;;;;6232138;22;20023;-92
2022/05/14 05:01:19;;;;;;;8.13;2.70;;;12.30;89.70;;;;;;6234736;22;20023;-94
2022/05/14 05:03:58;;;;;;;6.55;3.22;;;12.30;89.60;;;;;;6276926;22;20038;-93
2022/05/14 05:07:05;;;;;;;;;;;;;;;;;;;;;
2022/05/14 05:10:38;;;;;;;7.38;3.10;;;12.40;90.00;;;;;;6273179;22;20008;-94
2022/05/14 05:13:25;;;;;;;6.40;3.42;;;12.40;89.90;;;;;;6285874;22;20363;-93
2022/05/14 05:21:57;;;;;;;5.43;3.00;;;12.50;89.80;;;;;;6263950;22;20016;-96
2022/05/14 05:24:51;;;;;;;5.82;3.67;;;12.50;89.70;;;;;;6234711;22;20000;-95
2022/05/14 05:27:35;;;;;;;;;;;;;;;;;;;;;
2022/05/14 05:30:51;;;;;;;8.40;3.65;;;12.60;89.80;;;;;;6261709;22;20027;-94
2022/05/14 05:33:54;;;;;;;;;;;;;;;;;;;;;
2022/05/14 05:36:25;;;;;;;8.23;3.38;;;12.60;89.90;;;;;;6261688;22;20358;-95
2022/05/14 05:39:10;;;;;;;5.97;3.30;;;12.70;89.90;;;;;;6234205;22;20008;-95
2022/05/14 05:41:49;;;;;;;7.47;3.65;;;12.70;89.90;;;;;;6262026;22;20027;-94
2022/05/14 05:44:25;;;;;;;8.77;3.40;;;12.70;89.90;;;;;;6262715;22;20055;-94
2022/05/14 05:47:03;;;;;;;8.75;3.50;;;12.80;90.00;;;;;;6236059;22;20424;-93
2022/05/14 05:50:20;;;;;;;;;;;;;;;;;;;;;
2022/05/14 05:52:51;;;;;;;7.05;3.72;;;12.90;90.00;;;;;;6288000;22;20023;-93
2022/05/14 06:01:55;;;;;;;6.97;3.90;;;13.00;90.00;;;;;;6231638;23;20012;-95
2022/05/14 06:04:46;;;;;;;9.77;4.30;;;13.10;90.00;;;;;;6209615;23;20246;-93
2022/05/14 06:07:47;;;;;;;;;;;;;;;;;;;;;
2022/05/14 06:10:24;;;;;;;7.38;4.30;;;13.10;90.00;;;;;;6254388;23;20036;-93
2022/05/14 06:13:01;;;;;;;7.35;4.22;;;13.20;90.00;;;;;;6228123;23;20087;-94
2022/05/14 06:15:29;;;;;;;11.63;4.82;;;13.30;90.10;;;;;;6192320;23;20008;-92
2022/05/14 06:18:11;;;;;;;9.90;4.88;;;13.30;90.10;;;;;;6227819;23;20026;-94
2022/05/14 06:21:30;;;;;;;;;;;;;;;;;;;;;
2022/05/14 06:27:29;;;;;;;;;;;;;;;;;;;;;
2022/05/14 06:30:43;;;;;;;;;;;;;;;;;;;;;
2022/05/14 06:36:43;;;;;;;10.00;4.75;;;13.60;90.30;;;;;;6240029;23;20011;-93
2022/05/14 06:39:36;;;;;;;10.13;4.93;;;13.80;90.40;;;;;;6182409;23;20012;-94
2022/05/14 06:45:10;;;;;;;11.52;5.57;;;13.90;90.40;;;;;;6246655;23;20008;-93
2022/05/14 06:48:17;;;;;;;11.65;5.57;;;14.00;90.40;;;;;;6248336;23;20048;-94
2022/05/14 06:50:48;;;;;;;14.65;5.80;;;14.00;90.50;;;;;;6226586;22;20059;-94
2022/05/14 06:53:38;;;;;;;;;;;;;;;;;;;;;
2022/05/14 06:56:40;;;;;;;;;;;;;;;;;;;;;
2022/05/14 06:59:32;;;;;;;;;;;;;;;;;;;;;
2022/05/14 07:13:35;;;;;;;11.00;5.45;;;14.70;90.50;;;;;;6070757;23;20011;-95
2022/05/14 07:16:34;;;;;;;;;;;;;;;;;;;;;
2022/05/14 07:19:33;;;;;;;;;;;;;;;;;;;;;
2022/05/14 07:28:47;;;;;;;10.18;5.68;;;15.10;90.40;;;;;;6060437;23;20055;-94
2022/05/14 07:31:18;;;;;;;11.68;5.50;;;15.20;90.40;;;;;;6080689;23;20093;-94
2022/05/14 07:34:32;;;;;;;8.63;5.13;;;15.30;90.30;;;;;;6108446;23;20010;-96
2022/05/14 07:37:29;;;;;;;12.65;5.57;;;15.40;90.30;;;;;;6139734;23;20020;-92
2022/05/14 07:40:22;;;;;;;9.88;5.72;;;15.50;90.40;;;;;;6182615;22;20429;-94
2022/05/14 07:43:34;;;;;;;;;;;;;;;;;;;;;
2022/05/14 07:46:28;;;;;;;11.13;5.88;;;15.70;90.30;;;;;;6274789;22;20034;-94
2022/05/14 07:55:49;;;;;;;9.13;5.72;;;16.00;90.20;;;;;;6243072;22;20094;-95
2022/05/14 07:58:43;;;;;;;9.57;5.40;;;16.10;90.20;;;;;;6277040;22;20049;-93
2022/05/14 08:01:16;;;;;;;12.35;5.82;;;16.20;90.20;;;;;;6263251;22;20093;-93
2022/05/14 08:04:02;;;;;;;13.32;5.55;;;16.30;90.20;;;;;;6259021;22;20014;-94
2022/05/14 08:06:53;;;;;;;10.02;5.00;;;16.40;90.20;;;;;;6281194;22;20008;-92
2022/05/14 08:09:54;;;;;;;;;;;;;;;;;;;;;
2022/05/14 08:13:17;;;;;;;;;;;;;;;;;;;;;
2022/05/14 08:16:12;;;;;;;;;;;;;;;;;;;;;
2022/05/14 08:19:13;;;;;;;9.77;5.10;;;16.80;89.50;;;;;;6200210;23;20036;-93
2022/05/14 08:24:57;;;;;;;8.43;4.78;;;16.90;89.20;;;;;;6202834;23;20035;-96
2022/05/14 08:27:53;;;;;;;9.32;5.15;;;17.10;89.10;;;;;;6189457;23;20012;-95
2022/05/14 08:30:48;;;;;;;12.32;5.47;;;17.20;89.00;;;;;;6168314;23;20090;-93
2022/05/14 08:34:24;;;;;;;;;;;;;;;;;;;;;
2022/05/14 08:40:54;;;;;;;;;;;;;;;;;;;;;
2022/05/14 08:44:21;;;;;;;10.25;4.40;;;17.60;88.20;;;;;;6299975;22;20015;-94
2022/05/14 08:47:00;;;;;;;10.73;4.45;;;17.70;88.00;;;;;;6296827;22;20007;-96
2022/05/14 08:50:00;;;;;;;;;;;;;;;;;;;;;
2022/05/14 08:53:00;;;;;;;8.73;4.53;;;17.80;87.30;;;;;;6288364;22;20035;-93
2022/05/14 08:55:51;;;;;;;;;;;17.90;87.20;;;;;;6268215;22;20015;-95
2022/05/14 09:02:17;;;;;;;7.80;3.65;;;18.00;86.90;;;;;;6266853;22;20085;-95
2022/05/14 09:05:13;;;;;;;10.93;3.90;;;18.10;86.10;;;;;;6281653;22;20030;-95
2022/05/14 09:08:17;;;;;;;8.25;3.15;;;18.10;85.50;;;;;;6267796;22;20015;-93
2022/05/14 09:11:12;;;;;;;8.23;3.03;;;18.20;85.40;;;;;;6268893;22;20012;-94
2022/05/14 09:13:58;;;;;;;9.18;3.40;;;18.20;84.90;;;;;;6284823;22;20003;-95
2022/05/14 09:19:48;;;;;;;10.70;4.20;;;18.40;84.20;;;;;;6286219;22;20008;-93
2022/05/14 09:25:47;;;;;;;;;;;;;;;;;;;;;
2022/05/14 09:35:38;;;;;;;10.85;4.30;;;18.70;82.90;;;;;;6254147;22;20065;-93
2022/05/14 09:39:06;;;;;;;;;;;;;;;;;;;;;
2022/05/14 09:42:01;;;;;;;9.02;4.15;;;18.80;82.50;;;;;;6286124;22;20039;-91
2022/05/14 09:44:58;;;;;;;;;;;;;;;;;;;;;
2022/05/14 09:47:54;;;;;;;9.68;3.95;;;18.90;81.90;;;;;;6263216;22;20038;-94
2022/05/14 09:50:36;;;;;;;7.93;4.00;;;19.00;81.80;;;;;;6261566;22;20011;-92
2022/05/14 09:53:59;;;;;;;;;;;;;;;;;;;;;
2022/05/14 10:00:39;;;;;;;;;;;;;;;;;;;;;
2022/05/14 10:03:52;;;;;;;8.98;4.38;;;19.20;80.80;;;;;;6287605;22;20039;-92
2022/05/14 10:06:39;;;;;;;8.05;4.80;;;19.30;80.50;;;;;;6219967;23;20032;-93
2022/05/14 10:17:27;;;;;;;10.73;3.83;;;19.40;79.70;;;;;;6123773;23;20006;-95
2022/05/14 10:20:40;;;;;;;;;;;;;;;;;;;;;
2022/05/14 10:27:09;;;;;;;8.75;3.22;;;19.60;79.20;;;;;;6196594;22;20051;-92
2022/05/14 10:29:53;;;;;;;10.43;3.30;;;19.70;78.70;;;;;;6197270;23;20005;-93
2022/05/14 10:36:20;;;;;;;7.00;2.83;;;19.80;78.40;;;;;;6214711;23;20007;-93
2022/05/14 10:39:31;;;;;;;6.30;2.50;;;19.90;77.70;;;;;;6216313;23;19996;-90
2022/05/14 10:42:32;;;;;;;8.68;2.90;;;20.00;77.60;;;;;;6256469;22;20079;-96
2022/05/14 10:45:32;;;;;;;5.75;2.90;;;20.10;77.10;;;;;;6292378;22;20081;-95
2022/05/14 10:48:39;;;;;;;7.85;2.83;;;20.10;77.20;;;;;;6284300;22;20011;-93
2022/05/14 10:51:36;;;;;;;5.97;2.97;;;20.20;77.10;;;;;;6283471;22;20007;-95
2022/05/14 10:54:58;;;;;;;;;;;;;;;;;;;;;
2022/05/14 10:58:10;;;;;;;6.53;2.80;;;20.40;76.30;;;;;;6263482;22;20027;-93
2022/05/14 11:01:12;;;;;;;;;;;;;;;;;;;;;
2022/05/14 11:03:55;;;;;;;6.50;2.70;;;20.60;75.10;;;;;;6285214;22;20059;-95
2022/05/14 11:06:58;;;;;;;9.23;3.33;;;20.70;75.40;;;;;;6238256;22;20031;-93
2022/05/14 11:10:13;;;;;;;;;;;;;;;;;;;;;
2022/05/14 11:13:11;;;;;;;7.65;3.30;;;20.80;75.30;;;;;;6285023;22;20515;-93
2022/05/14 11:16:00;;;;;;;8.48;2.75;;;20.80;74.70;;;;;;6273977;22;20031;-92
2022/05/14 11:19:22;;;;;;;;;;;;;;;;;;;;;
2022/05/14 11:22:18;;;;;;;6.63;2.85;;;20.80;74.30;;;;;;6279961;22;20040;-92
2022/05/14 11:25:43;;;;;;;6.82;2.97;;;20.80;74.30;;;;;;6241085;22;20015;-93
2022/05/14 11:28:22;;;;;;;6.78;3.03;;;20.90;73.90;;;;;;6268368;22;20000;-94
2022/05/14 11:34:44;;;;;;;;;;;;;;;;;;;;;
2022/05/14 11:37:25;;;;;;;6.82;2.70;;;21.10;72.90;;;;;;6284393;22;20031;-93
2022/05/14 11:44:12;;;;;;;;;;;;;;;;;;;;;
2022/05/14 11:47:36;;;;;;;;;;;;;;;;;;;;;
2022/05/14 11:50:41;;;;;;;7.28;2.88;;;21.20;72.40;;;;;;6143910;23;20072;-93
2022/05/14 11:53:59;;;;;;;6.47;3.20;;;21.30;71.80;;;;;;6168454;23;20140;-92
2022/05/14 12:00:10;;;;;;;6.63;2.50;;;21.50;71.30;;;;;;6189000;23;20017;-92
2022/05/14 12:03:03;;;;;;;;;;;;;;;;;;;;;
2022/05/14 12:06:23;;;;;;;;;;;;;;;;;;;;;
2022/05/14 12:09:34;;;;;;;;;;;;;;;;;;;;;
2022/05/14 12:12:56;;;;;;;;;;;;;;;;;;;;;
2022/05/14 12:15:52;;;;;;;7.68;3.15;;;21.80;70.20;;;;;;6191434;23;20032;-92
2022/05/14 12:18:32;;;;;;;;;;;;;;;;;;;;;
2022/05/14 12:21:48;;;;;;;;;;;;;;;;;;;;;
2022/05/14 12:29:10;;;;;;;5.45;2.55;;;22.10;69.40;;;;;;6246529;22;20006;-93
2022/05/14 12:34:43;;;;;;;6.97;2.65;;;22.20;68.70;;;;;;6292831;22;20006;-94
2022/05/14 12:38:08;;;;;;;10.82;3.95;;;22.30;68.40;;;;;;6302476;22;20087;-93
2022/05/14 12:41:31;;;;;;;;;;;;;;;;;;;;;
2022/05/14 12:44:46;;;;;;;;;;;;;;;;;;;;;
2022/05/14 12:47:37;;;;;;;7.32;2.97;;;22.30;67.20;;;;;;6294929;22;20011;-93
2022/05/14 12:50:36;;;;;;;7.97;2.70;;;22.30;67.50;;;;;;6283977;22;20008;-92
2022/05/14 12:53:40;;;;;;;8.25;3.25;;;22.40;67.70;;;;;;6283842;22;20000;-93
2022/05/14 12:57:03;;;;;;;;;;;;;;;;;;;;;
2022/05/14 13:00:09;;;;;;;6.35;2.88;;;22.50;66.90;;;;;;6271727;22;20011;-93
2022/05/14 13:06:35;;;;;;;;;;;;;;;;;;;;;
2022/05/14 13:13:15;;;;;;;7.80;2.40;;;22.60;66.40;;;;;;6265807;22;20010;-93
2022/05/14 13:16:03;;;;;;;;;;;;;;;;;;;;;
2022/05/14 13:19:28;;;;;;;;;;;;;;;;;;;;;
2022/05/14 13:22:11;;;;;;;;;;;;;;;;;;;;;
2022/05/14 13:25:07;;;;;;;5.85;2.42;;;22.80;66.00;;;;;;6285606;22;20023;-89
2022/05/14 13:27:44;;;;;;;7.65;3.25;;;22.80;65.90;;;;;;6265366;22;20003;-91
2022/05/14 13:31:11;;;;;;;;;;;;;;;;;;;;;
2022/05/14 13:37:24;;;;;;;7.43;2.63;;;22.90;64.40;;;;;;6285543;22;20023;-92
2022/05/14 13:58:00;;;;;;;;;;;;;;;;;;;;;
2022/05/14 14:01:22;;;;;;;;;;;;;;;;;;;;;
2022/05/14 14:04:38;;;;;;;;;;;;;;;;;;;;;
2022/05/14 14:07:42;;;;;;;;;;;;;;;;;;;;;
2022/05/14 14:15:20;;;;;;;;;;;;;;;;;;;;;
2022/05/14 14:21:11;;;;;;;8.50;4.18;;;23.00;62.80;;;;;;6235314;22;20000;-88
2022/05/14 14:23:52;;;;;;;8.57;3.13;;;23.00;62.70;;;;;;6282260;22;20479;-90
2022/05/14 14:29:28;;;;;;;;;;;;;;;;;;;;;
2022/05/14 14:32:26;;;;;;;7.22;2.78;;;23.20;62.60;;;;;;6296228;22;20000;-92
2022/05/14 14:35:19;;;;;;;;;;;;;;;;;;;;;
2022/05/14 14:38:12;;;;;;;6.78;2.70;;;23.20;62.30;;;;;;6285095;22;20031;-91
2022/05/14 14:40:51;;;;;;;5.53;2.20;;;23.20;62.20;;;;;;6285950;22;19996;-92
2022/05/14 14:43:25;;;;;;;8.77;2.78;;;23.30;62.30;;;;;;6278944;22;19996;-91
2022/05/14 14:45:57;;;;;;;7.03;2.88;;;23.20;61.80;;;;;;6280223;22;20051;-92
2022/05/14 14:48:39;;;;;;;5.88;2.83;;;23.30;61.10;;;;;;6254143;22;20010;-91
2022/05/14 14:51:24;;;;;;;5.65;2.90;;;23.20;61.10;;;;;;6304606;22;20004;-92
2022/05/14 14:57:21;;;;;;;6.65;2.75;;;23.00;60.90;;;;;;6258071;22;20435;-91
2022/05/14 15:00:14;;;;;;;4.35;2.28;;;23.00;61.20;;;;;;6257547;22;20011;-93
2022/05/14 15:03:03;;;;;;;8.48;3.20;;;23.00;61.60;;;;;;6232828;22;20031;-91
2022/05/14 15:05:52;;;;;;;8.02;2.92;;;23.00;61.00;;;;;;6256667;22;20007;-89
2022/05/14 15:08:45;;;;;;;7.18;2.60;;;23.00;61.10;;;;;;6255403;22;20003;-91
2022/05/14 15:11:58;;;;;;;7.90;2.92;;;23.00;60.90;;;;;;6231483;22;20008;-90
2022/05/14 15:15:02;;;;;;;7.07;2.67;;;23.10;60.50;;;;;;6258990;22;20003;-90
2022/05/14 15:18:04;;;;;;;;;;;;;;;;;;;;;
2022/05/14 15:22:53;;;;;;;;;;;;;;;;;;;;;
2022/05/14 15:25:36;;;;;;;;;;;;;;;;;;;;;
2022/05/14 15:28:19;;;;;;;;;;;;;;;;;;;;;
2022/05/14 15:37:48;;;;;;;7.72;2.50;;;22.60;61.50;;;;;;5002990;28;20087;-89
2022/05/14 15:44:39;;;;;;;8.48;4.53;;;22.80;61.40;;;;;;5059450;28;20040;-95
2022/05/14 15:54:48;;;;;;;9.90;2.92;;;22.70;60.70;;;;;;5057069;28;20030;-92
2022/05/14 16:02:00;;;;;;;;;;;;;;;;;;;;;
2022/05/14 16:50:39;;;;;;;;;;;;;;;;;;;;;
2022/05/14 16:53:53;;;;;;;8.73;4.10;;;22.70;59.90;;;;;;4881036;29;20033;-91
2022/05/14 16:56:43;;;;;;;8.60;4.32;;;22.60;60.80;;;;;;4918245;29;20031;-91
2022/05/14 17:02:21;;;;;;;;;;;;;;;;;;;;;
2022/05/14 17:05:41;;;;;;;;;;;;;;;;;;;;;
2022/05/14 17:08:52;;;;;;;6.43;3.38;;;22.50;60.70;;;;;;4948705;28;20045;-91
2022/05/14 17:11:36;;;;;;;5.30;2.63;;;22.50;60.70;;;;;;4940411;29;20486;-90
2022/05/14 17:14:55;;;;;;;8.00;3.05;;;22.50;60.80;;;;;;4957886;29;20090;-93
2022/05/14 17:18:18;;;;;;;;;;;;;;;;;;;;;
2022/05/14 17:20:54;;;;;;;7.60;2.97;;;22.50;60.70;;;;;;4922901;28;20074;-92
2022/05/14 17:40:39;;;;;;;7.38;2.80;;;22.40;60.20;;;;;;4958585;28;20076;-91
2022/05/14 17:44:24;;;;;;;;;;;;;;;;;;;;;
2022/05/14 17:46:58;;;;;;;7.43;3.00;;;22.30;60.30;;;;;;5010125;28;20470;-89
2022/05/14 17:50:18;;;;;;;8.73;2.95;;;22.20;60.50;;;;;;4995566;28;20129;-90
2022/05/14 18:02:41;;;;;;;11.05;4.10;;;21.80;59.80;;;;;;5023509;28;20049;-91
2022/05/14 18:05:27;;;;;;;;;;;;;;;;;;;;;
2022/05/14 18:08:08;;;;;;;7.88;2.95;;;21.70;59.80;;;;;;5039160;28;20030;-90
2022/05/14 18:13:59;;;;;;;;;;;;;;;;;;;;;
2022/05/14 18:20:39;;;;;;;;;;;;;;;;;;;;;
2022/05/14 18:23:27;;;;;;;8.40;3.53;;;21.30;60.20;;;;;;5028274;28;20057;-93
2022/05/14 18:29:51;;;;;;;11.35;3.70;;;21.10;60.60;;;;;;4965304;28;20065;-91
2022/05/14 18:33:27;;;;;;;10.80;3.58;;;21.10;60.90;;;;;;4987320;28;20027;-91
2022/05/14 18:35:59;;;;;;;10.50;3.38;;;21.00;61.00;;;;;;5006523;28;20035;-88
2022/05/14 18:38:52;;;;;;;14.23;3.50;;;20.90;61.00;;;;;;5013596;28;20481;-90
2022/05/14 18:42:11;;;;;;;9.57;3.42;;;20.90;61.20;;;;;;5018964;28;20038;-91
2022/05/14 18:45:08;;;;;;;;;;;;;;;;;;;;;
2022/05/14 18:48:09;;;;;;;;;;;;;;;;;;;;;
2022/05/14 18:51:07;;;;;;;7.65;3.25;;;20.70;61.50;;;;;;5011567;28;20121;-90
2022/05/14 19:10:22;;;;;;;11.23;3.92;;;20.30;62.00;;;;;;4919038;29;20593;-90
2022/05/14 19:16:12;;;;;;;;;;;;;;;;;;;;;
2022/05/14 19:19:06;;;;;;;11.65;4.32;;;20.00;62.00;;;;;;4994025;28;20142;-90
2022/05/14 19:21:43;;;;;;;10.13;3.63;;;19.90;62.10;;;;;;5004731;28;20107;-89
2022/05/14 19:24:32;;;;;;;11.73;3.33;;;19.90;62.30;;;;;;5016609;28;20042;-90
2022/05/14 19:27:16;;;;;;;;;;;;;;;;;;;;;
2022/05/14 19:29:57;;;;;;;7.35;3.42;;;19.80;62.50;;;;;;5017569;28;20038;-92
2022/05/14 19:32:54;;;;;;;10.88;3.80;;;19.70;62.70;;;;;;5016566;28;20029;-89
2022/05/14 19:35:41;;;;;;;;;;;;;;;;;;;;;
2022/05/14 19:41:16;;;;;;;7.30;3.70;;;19.60;63.10;;;;;;5016668;28;20029;-90
2022/05/14 19:44:09;;;;;;;9.20;3.60;;;19.50;63.20;;;;;;5036449;28;20036;-89
2022/05/14 19:47:09;;;;;;;9.02;3.63;;;19.50;63.50;;;;;;5035724;28;20037;-91
2022/05/14 19:49:50;;;;;;;;;;;19.40;63.60;;;;;;5034880;28;20124;-90
2022/05/14 19:52:18;;;;;;;7.80;3.13;;;19.30;63.60;;;;;;5035242;28;19955;-91
2022/05/14 19:55:07;;;;;;;;;;;;;;;;;;;;;
2022/05/14 20:01:28;;;;;;;;;;;;;;;;;;;;;
2022/05/14 20:04:07;;;;;;;;;;;;;;;;;;;;;
2022/05/14 20:06:39;;;;;;;9.20;3.33;;;19.10;64.50;;;;;;5038335;28;20113;-88
2022/05/14 20:09:16;;;;;;;8.95;3.55;;;19.00;64.50;;;;;;5039591;28;20017;-87
2022/05/14 20:12:10;;;;;;;11.43;3.67;;;19.00;64.60;;;;;;5039347;28;20030;-91
2022/05/14 20:14:39;;;;;;;9.40;3.38;;;19.00;64.70;;;;;;5037259;28;20028;-89
2022/05/14 20:23:19;;;;;;;;;;;;;;;;;;;;;
2022/05/14 20:25:57;;;;;;;11.38;3.42;;;18.80;65.10;;;;;;5038946;28;20049;-89
2022/05/14 20:32:19;;;;;;;;;;;;;;;;;;;;;
2022/05/14 20:38:35;;;;;;;;;;;;;;;;;;;;;
2022/05/14 20:47:41;;;;;;;8.27;3.00;;;18.50;66.20;;;;;;5029508;28;20045;-90
2022/05/14 20:53:29;;;;;;;8.95;3.55;;;18.40;66.40;;;;;;4988583;28;20093;-90
2022/05/14 20:56:17;;;;;;;9.38;3.40;;;18.30;66.60;;;;;;5019249;28;20026;-90
2022/05/14 20:58:53;;;;;;;11.05;4.10;;;18.30;66.70;;;;;;5018876;28;20030;-90
2022/05/14 21:02:03;;;;;;;;;;;;;;;;;;;;;
2022/05/14 21:05:53;;;;;;;;;;;;;;;;;;;;;
2022/05/14 21:16:11;;;;;;;8.38;3.75;;;18.10;67.40;;;;;;4880159;29;20043;-89
2022/05/14 21:18:59;;;;;;;;;;;;;;;;;;;;;
2022/05/14 21:21:36;;;;;;;13.25;3.88;;;18.00;67.70;;;;;;4985803;28;20050;-90
2022/05/14 21:24:34;;;;;;;10.50;4.22;;;17.90;67.90;;;;;;5002661;28;20057;-90
2022/05/14 21:27:36;;;;;;;10.75;4.22;;;17.90;68.10;;;;;;5018251;28;20038;-90
2022/05/14 21:33:46;;;;;;;;;;;;;;;;;;;;;
2022/05/14 21:39:38;;;;;;;;;;;;;;;;;;;;;
2022/05/14 21:42:40;;;;;;;;;;;;;;;;;;;;;
2022/05/14 21:45:22;;;;;;;;;;;;;;;;;;;;;
2022/05/14 21:52:06;;;;;;;;;;;;;;;;;;;;;
2022/05/14 21:55:00;;;;;;;10.40;3.25;;;17.50;69.50;;;;;;4978561;28;20029;-89
2022/05/14 21:57:47;;;;;;;;;;;;;;;;;;;;;
2022/05/14 22:00:41;;;;;;;;;;;;;;;;;;;;;
2022/05/14 22:04:15;;;;;;;;;;;;;;;;;;;;;
2022/05/14 22:06:47;;;;;;;9.35;3.30;;;17.30;69.80;;;;;;4938458;29;20044;-89
2022/05/14 22:09:41;;;;;;;9.27;3.40;;;17.30;69.80;;;;;;5016491;28;20037;-89
2022/05/14 22:19:21;;;;;;;10.57;3.50;;;17.20;70.20;;;;;;4959119;29;20665;-91
2022/05/14 22:22:14;;;;;;;9.55;3.92;;;17.20;70.30;;;;;;5035732;28;20049;-90
2022/05/14 22:25:17;;;;;;;10.23;3.88;;;17.10;70.30;;;;;;5037088;28;20092;-91
2022/05/14 22:28:03;;;;;;;12.50;3.80;;;17.10;70.60;;;;;;4995071;28;20023;-89
2022/05/14 22:34:27;;;;;;;10.90;3.85;;;17.00;71.00;;;;;;4976239;28;20034;-89
2022/05/14 22:38:03;;;;;;;;;;;;;;;;;;;;;
2022/05/14 22:44:05;;;;;;;;;;;;;;;;;;;;;
2022/05/14 22:46:34;;;;;;;10.13;3.50;;;16.90;71.30;;;;;;4986866;28;20043;-91
2022/05/14 22:49:04;;;;;;;10.65;3.53;;;16.80;71.40;;;;;;4979615;28;20090;-89
2022/05/14 22:51:53;;;;;;;11.40;3.90;;;16.80;71.60;;;;;;4980336;28;20100;-90
2022/05/14 22:54:40;;;;;;;;;;;;;;;;;;;;;
2022/05/14 22:57:28;;;;;;;11.50;3.45;;;16.80;71.90;;;;;;4981355;28;20133;-88
2022/05/14 22:59:54;;;;;;;14.15;4.30;;;16.70;71.90;;;;;;5019414;28;20049;-91
2022/05/14 23:02:44;;;;;;;13.10;4.15;;;16.70;72.00;;;;;;5016655;28;20473;-89
2022/05/14 23:05:26;;;;;;;10.98;3.70;;;16.70;72.10;;;;;;5016390;28;20108;-90
2022/05/14 23:08:15;;;;;;;10.93;4.22;;;16.60;72.10;;;;;;5016837;28;20037;-88
2022/05/14 23:11:08;;;;;;;13.55;4.40;;;16.60;72.50;;;;;;5016755;28;20030;-90
2022/05/14 23:14:13;;;;;;;9.68;3.60;;;16.60;72.50;;;;;;5000183;28;20045;-90
2022/05/14 23:16:49;;;;;;;;;;;;;;;;;;;;;
2022/05/14 23:19:30;;;;;;;;;;;;;;;;;;;;;
2022/05/14 23:22:23;;;;;;;13.07;3.65;;;16.50;72.70;;;;;;5039825;28;20063;-89
2022/05/14 23:25:00;;;;;;;11.27;4.00;;;16.50;72.70;;;;;;5040215;28;20048;-89
2022/05/14 23:27:33;;;;;;;11.85;4.03;;;16.50;72.80;;;;;;5038964;28;20115;-90
2022/05/14 23:30:05;;;;;;;9.90;4.20;;;16.50;73.00;;;;;;5022744;28;20033;-90
2022/05/14 23:32:56;;;;;;;12.75;3.90;;;16.50;73.10;;;;;;5019261;28;20033;-89
2022/05/14 23:35:38;;;;;;;12.80;4.18;;;16.40;73.20;;;;;;5019966;28;20022;-89
2022/05/14 23:38:06;;;;;;;8.98;3.72;;;16.40;73.20;;;;;;5019368;28;20022;-89
2022/05/14 23:40:39;;;;;;;10.20;4.05;;;16.40;73.20;;;;;;5003599;28;20466;-91
2022/05/14 23:43:07;;;;;;;10.23;4.20;;;16.30;73.40;;;;;;5038872;28;20040;-88
2022/05/14 23:46:12;;;;;;;;;;;;;;;;;;;;;
2022/05/14 23:48:49;;;;;;;12.52;4.18;;;16.30;73.70;;;;;;5029224;28;20124;-89
2022/05/14 23:51:58;;;;;;;12.25;3.63;;;16.30;73.80;;;;;;5023665;28;20041;-91
2022/05/14 23:54:28;;;;;;;11.68;4.15;;;16.20;73.80;;;;;;5039208;28;20021;-90
2022/05/14 23:57:07;;;;;;;;;;;;;;;;;;;;;
